createdAt,value
2018-09-03T00:00:50.582Z,16.8
2018-09-03T00:01:50.526Z,16.8
2018-09-03T00:02:50.507Z,16.73
2018-09-03T00:03:50.447Z,16.77
2018-09-03T00:04:50.570Z,16.77
2018-09-03T00:05:50.774Z,16.8
2018-09-03T00:06:50.459Z,16.8
2018-09-03T00:07:50.430Z,16.8
2018-09-03T00:08:50.407Z,16.78
2018-09-03T00:09:50.402Z,16.78
2018-09-03T00:10:50.450Z,16.8
2018-09-03T00:11:50.363Z,16.78
2018-09-03T00:12:50.667Z,16.78
2018-09-03T00:13:50.428Z,16.78
2018-09-03T00:14:50.512Z,16.8
2018-09-03T00:15:50.456Z,16.78
2018-09-03T00:16:50.376Z,16.77
2018-09-03T00:17:50.457Z,16.78
2018-09-03T00:18:50.480Z,16.75
2018-09-03T00:19:50.543Z,16.75
2018-09-03T00:20:50.526Z,16.78
2018-09-03T00:21:50.455Z,16.77
2018-09-03T00:22:50.503Z,16.78
2018-09-03T00:23:50.444Z,16.77
2018-09-03T00:24:50.401Z,16.77
2018-09-03T00:25:50.421Z,16.77
2018-09-03T00:26:50.373Z,16.77
2018-09-03T00:27:50.384Z,16.75
2018-09-03T00:28:50.551Z,16.78
2018-09-03T00:29:50.395Z,16.77
2018-09-03T00:30:50.414Z,16.75
2018-09-03T00:31:50.984Z,16.75
2018-09-03T00:32:50.449Z,16.78
2018-09-03T00:33:50.382Z,16.77
2018-09-03T00:34:50.590Z,16.77
2018-09-03T00:35:50.566Z,16.75
2018-09-03T00:36:50.710Z,16.77
2018-09-03T00:37:50.405Z,16.75
2018-09-03T00:38:50.511Z,16.77
2018-09-03T00:39:50.368Z,16.75
2018-09-03T00:40:50.384Z,16.77
2018-09-03T00:41:50.366Z,16.75
2018-09-03T00:42:50.568Z,16.71
2018-09-03T00:43:50.531Z,16.7
2018-09-03T00:44:50.554Z,16.7
2018-09-03T00:45:50.530Z,16.71
2018-09-03T00:46:50.385Z,16.68
2018-09-03T00:47:50.459Z,16.67
2018-09-03T00:48:50.389Z,16.66
2018-09-03T00:49:50.416Z,16.66
2018-09-03T00:50:50.362Z,16.67
2018-09-03T00:51:50.380Z,16.64
2018-09-03T00:52:50.365Z,16.64
2018-09-03T00:53:50.408Z,16.67
2018-09-03T00:54:50.379Z,16.66
2018-09-03T00:55:50.400Z,16.66
2018-09-03T00:56:50.554Z,16.64
2018-09-03T00:57:50.373Z,16.64
2018-09-03T00:58:50.457Z,16.66
2018-09-03T00:59:50.364Z,16.62
2018-09-03T01:00:50.399Z,16.6
2018-09-03T01:01:50.405Z,16.56
2018-09-03T01:02:50.357Z,16.57
2018-09-03T01:03:50.363Z,16.56
2018-09-03T01:04:50.502Z,16.6
2018-09-03T01:05:50.723Z,16.6
2018-09-03T01:06:50.362Z,16.59
2018-09-03T01:07:50.369Z,16.57
2018-09-03T01:08:50.356Z,16.59
2018-09-03T01:09:50.586Z,16.62
2018-09-03T01:10:50.733Z,16.64
2018-09-03T01:11:50.379Z,16.64
2018-09-03T01:12:50.518Z,16.64
2018-09-03T01:13:50.405Z,16.63
2018-09-03T01:14:50.365Z,16.66
2018-09-03T01:15:50.840Z,16.66
2018-09-03T01:16:50.372Z,16.67
2018-09-03T01:17:50.342Z,16.68
2018-09-03T01:18:50.392Z,16.68
2018-09-03T01:19:50.391Z,16.66
2018-09-03T01:20:50.402Z,16.68
2018-09-03T01:21:50.359Z,16.64
2018-09-03T01:22:50.432Z,16.68
2018-09-03T01:23:50.332Z,16.68
2018-09-03T01:24:50.347Z,16.68
2018-09-03T01:25:50.698Z,16.67
2018-09-03T01:26:50.471Z,16.66
2018-09-03T01:27:50.383Z,16.67
2018-09-03T01:28:50.356Z,16.68
2018-09-03T01:29:50.333Z,16.68
2018-09-03T01:30:50.363Z,16.68
2018-09-03T01:31:50.499Z,16.68
2018-09-03T01:32:50.353Z,16.7
2018-09-03T01:33:50.418Z,16.7
2018-09-03T01:34:50.432Z,16.68
2018-09-03T01:35:50.423Z,16.7
2018-09-03T01:36:50.540Z,16.71
2018-09-03T01:37:50.666Z,16.68
2018-09-03T01:38:50.391Z,16.7
2018-09-03T01:39:50.571Z,16.68
2018-09-03T01:40:50.382Z,16.62
2018-09-03T01:41:50.475Z,16.63
2018-09-03T01:42:50.381Z,16.6
2018-09-03T01:43:50.572Z,16.56
2018-09-03T01:44:50.465Z,16.5
2018-09-03T01:45:51.656Z,16.5
2018-09-03T01:46:50.409Z,16.52
2018-09-03T01:47:50.346Z,16.56
2018-09-03T01:48:50.336Z,16.54
2018-09-03T01:49:50.611Z,16.53
2018-09-03T01:50:50.330Z,16.5
2018-09-03T01:51:50.381Z,16.5
2018-09-03T01:52:50.344Z,16.53
2018-09-03T01:53:50.352Z,16.53
2018-09-03T01:54:50.407Z,16.53
2018-09-03T01:55:50.331Z,16.5
2018-09-03T01:56:50.437Z,16.5
2018-09-03T01:57:50.437Z,16.53
2018-09-03T01:58:50.340Z,16.54
2018-09-03T01:59:50.485Z,16.52
2018-09-03T02:00:50.384Z,16.53
2018-09-03T02:01:50.464Z,16.52
2018-09-03T02:02:50.398Z,16.47
2018-09-03T02:03:50.730Z,16.42
2018-09-03T02:04:50.485Z,16.45
2018-09-03T02:05:50.609Z,16.46
2018-09-03T02:06:50.380Z,16.42
2018-09-03T02:07:50.388Z,16.4
2018-09-03T02:08:50.732Z,16.35
2018-09-03T02:09:50.432Z,16.35
2018-09-03T02:10:50.450Z,16.35
2018-09-03T02:11:50.546Z,16.36
2018-09-03T02:12:50.375Z,16.35
2018-09-03T02:13:50.462Z,16.39
2018-09-03T02:14:50.412Z,16.39
2018-09-03T02:15:50.411Z,16.42
2018-09-03T02:16:50.362Z,16.4
2018-09-03T02:17:50.318Z,16.43
2018-09-03T02:18:51.165Z,16.42
2018-09-03T02:19:50.455Z,16.37
2018-09-03T02:20:50.492Z,16.35
2018-09-03T02:21:50.399Z,16.37
2018-09-03T02:22:50.360Z,16.39
2018-09-03T02:23:50.322Z,16.4
2018-09-03T02:24:50.340Z,16.37
2018-09-03T02:25:50.369Z,16.4
2018-09-03T02:26:50.320Z,16.42
2018-09-03T02:27:50.351Z,16.43
2018-09-03T02:28:50.330Z,16.43
2018-09-03T02:29:50.328Z,16.43
2018-09-03T02:30:50.369Z,16.43
2018-09-03T02:31:50.320Z,16.43
2018-09-03T02:32:50.324Z,16.45
2018-09-03T02:33:50.363Z,16.46
2018-09-03T02:34:50.374Z,16.47
2018-09-03T02:35:50.690Z,16.46
2018-09-03T02:36:50.334Z,16.49
2018-09-03T02:37:50.361Z,16.5
2018-09-03T02:38:50.307Z,16.49
2018-09-03T02:39:50.364Z,16.5
2018-09-03T02:40:50.406Z,16.52
2018-09-03T02:41:50.627Z,16.53
2018-09-03T02:42:50.526Z,16.52
2018-09-03T02:43:50.637Z,16.54
2018-09-03T02:44:50.316Z,16.52
2018-09-03T02:45:50.382Z,16.54
2018-09-03T02:46:50.384Z,16.53
2018-09-03T02:47:50.507Z,16.52
2018-09-03T02:48:50.367Z,16.47
2018-09-03T02:49:50.355Z,16.47
2018-09-03T02:50:50.356Z,16.5
2018-09-03T02:51:50.366Z,16.52
2018-09-03T02:52:50.416Z,16.49
2018-09-03T02:53:50.459Z,16.39
2018-09-03T02:54:50.399Z,16.35
2018-09-03T02:55:50.512Z,16.36
2018-09-03T02:56:50.577Z,16.35
2018-09-03T02:57:50.423Z,16.33
2018-09-03T02:58:50.358Z,16.36
2018-09-03T02:59:50.440Z,16.37
2018-09-03T03:00:50.418Z,16.35
2018-09-03T03:01:50.651Z,16.29
2018-09-03T03:02:50.308Z,16.26
2018-09-03T03:03:50.667Z,16.26
2018-09-03T03:04:50.333Z,16.29
2018-09-03T03:05:50.330Z,16.32
2018-09-03T03:06:50.605Z,16.33
2018-09-03T03:07:50.356Z,16.36
2018-09-03T03:08:50.310Z,16.37
2018-09-03T03:09:50.322Z,16.37
2018-09-03T03:10:50.641Z,16.39
2018-09-03T03:11:50.502Z,16.37
2018-09-03T03:12:50.396Z,16.37
2018-09-03T03:13:51.185Z,16.42
2018-09-03T03:14:50.372Z,16.37
2018-09-03T03:15:50.303Z,16.39
2018-09-03T03:16:50.440Z,16.39
2018-09-03T03:17:50.345Z,16.4
2018-09-03T03:18:50.398Z,16.4
2018-09-03T03:19:50.303Z,16.39
2018-09-03T03:20:50.302Z,16.39
2018-09-03T03:21:50.316Z,16.4
2018-09-03T03:22:50.346Z,16.39
2018-09-03T03:23:50.536Z,16.42
2018-09-03T03:24:50.443Z,16.45
2018-09-03T03:25:50.410Z,16.43
2018-09-03T03:26:50.371Z,16.46
2018-09-03T03:27:50.643Z,16.4
2018-09-03T03:28:50.409Z,16.39
2018-09-03T03:29:50.594Z,16.39
2018-09-03T03:30:50.324Z,16.4
2018-09-03T03:31:50.670Z,16.4
2018-09-03T03:32:50.316Z,16.43
2018-09-03T03:33:50.493Z,16.42
2018-09-03T03:34:50.618Z,16.4
2018-09-03T03:35:50.364Z,16.42
2018-09-03T03:36:50.332Z,16.43
2018-09-03T03:37:50.343Z,16.4
2018-09-03T03:38:50.302Z,16.32
2018-09-03T03:39:50.507Z,16.31
2018-09-03T03:40:50.398Z,16.31
2018-09-03T03:41:50.389Z,16.26
2018-09-03T03:42:50.510Z,16.29
2018-09-03T03:43:50.715Z,16.31
2018-09-03T03:44:50.648Z,16.33
2018-09-03T03:45:50.296Z,16.35
2018-09-03T03:46:50.346Z,16.36
2018-09-03T03:47:50.666Z,16.4
2018-09-03T03:48:50.287Z,16.39
2018-09-03T03:49:50.306Z,16.4
2018-09-03T03:50:50.330Z,16.39
2018-09-03T03:51:50.307Z,16.4
2018-09-03T03:52:50.464Z,16.39
2018-09-03T03:53:50.321Z,16.39
2018-09-03T03:54:50.382Z,16.37
2018-09-03T03:55:50.492Z,16.39
2018-09-03T03:56:50.366Z,16.39
2018-09-03T03:57:50.659Z,16.4
2018-09-03T03:58:50.303Z,16.42
2018-09-03T03:59:50.458Z,16.43
2018-09-03T04:00:50.341Z,16.42
2018-09-03T04:01:50.449Z,16.43
2018-09-03T04:02:50.283Z,16.39
2018-09-03T04:03:50.325Z,16.39
2018-09-03T04:04:50.312Z,16.39
2018-09-03T04:05:50.341Z,16.39
2018-09-03T04:06:50.317Z,16.39
2018-09-03T04:07:50.329Z,16.33
2018-09-03T04:08:50.303Z,16.33
2018-09-03T04:09:50.290Z,16.33
2018-09-03T04:10:50.281Z,16.35
2018-09-03T04:11:50.306Z,16.35
2018-09-03T04:12:50.296Z,16.31
2018-09-03T04:13:50.300Z,16.24
2018-09-03T04:14:50.323Z,16.26
2018-09-03T04:15:50.343Z,16.28
2018-09-03T04:16:50.459Z,16.31
2018-09-03T04:17:50.316Z,16.29
2018-09-03T04:18:50.316Z,16.33
2018-09-03T04:19:50.284Z,16.33
2018-09-03T04:20:50.279Z,16.35
2018-09-03T04:21:50.340Z,16.36
2018-09-03T04:22:50.561Z,16.4
2018-09-03T04:23:50.547Z,16.39
2018-09-03T04:24:50.309Z,16.42
2018-09-03T04:25:50.662Z,16.42
2018-09-03T04:26:50.365Z,16.43
2018-09-03T04:27:50.292Z,16.45
2018-09-03T04:28:50.574Z,16.45
2018-09-03T04:29:51.524Z,16.46
2018-09-03T04:30:50.398Z,16.45
2018-09-03T04:31:50.283Z,16.45
2018-09-03T04:32:50.348Z,16.45
2018-09-03T04:33:50.518Z,16.47
2018-09-03T04:34:50.313Z,16.47
2018-09-03T04:35:50.354Z,16.5
2018-09-03T04:36:50.485Z,16.49
2018-09-03T04:37:50.296Z,16.49
2018-09-03T04:38:50.868Z,16.5
2018-09-03T04:39:50.319Z,16.52
2018-09-03T04:40:50.281Z,16.5
2018-09-03T04:41:50.346Z,16.5
2018-09-03T04:42:50.488Z,16.49
2018-09-03T04:43:50.355Z,16.52
2018-09-03T04:44:50.278Z,16.5
2018-09-03T04:45:50.300Z,16.49
2018-09-03T04:46:50.350Z,16.49
2018-09-03T04:47:50.343Z,16.47
2018-09-03T04:48:50.377Z,16.5
2018-09-03T04:49:50.405Z,16.52
2018-09-03T04:50:50.336Z,16.5
2018-09-03T04:51:50.290Z,16.5
2018-09-03T04:52:50.278Z,16.52
2018-09-03T04:53:50.303Z,16.5
2018-09-03T04:54:50.408Z,16.49
2018-09-03T04:55:50.479Z,16.5
2018-09-03T04:56:50.273Z,16.49
2018-09-03T04:57:50.261Z,16.5
2018-09-03T04:58:50.334Z,16.5
2018-09-03T04:59:50.280Z,16.52
2018-09-03T05:00:50.320Z,16.53
2018-09-03T05:01:50.322Z,16.53
2018-09-03T05:02:50.272Z,16.53
2018-09-03T05:03:50.312Z,16.53
2018-09-03T05:04:50.370Z,16.5
2018-09-03T05:05:50.944Z,16.45
2018-09-03T05:06:50.386Z,16.42
2018-09-03T05:07:50.407Z,16.37
2018-09-03T05:08:50.408Z,16.37
2018-09-03T05:09:50.532Z,16.36
2018-09-03T05:10:50.337Z,16.32
2018-09-03T05:11:51.159Z,16.33
2018-09-03T05:12:50.484Z,16.33
2018-09-03T05:13:50.294Z,16.31
2018-09-03T05:14:50.294Z,16.36
2018-09-03T05:15:50.435Z,16.37
2018-09-03T05:16:50.334Z,16.35
2018-09-03T05:17:50.314Z,16.39
2018-09-03T05:18:50.401Z,16.39
2018-09-03T05:19:50.277Z,16.39
2018-09-03T05:20:50.339Z,16.39
2018-09-03T05:21:50.344Z,16.42
2018-09-03T05:22:50.586Z,16.42
2018-09-03T05:23:50.486Z,16.43
2018-09-03T05:24:50.581Z,16.45
2018-09-03T05:25:50.317Z,16.46
2018-09-03T05:26:50.290Z,16.46
2018-09-03T05:27:50.316Z,16.43
2018-09-03T05:28:50.292Z,16.46
2018-09-03T05:29:50.311Z,16.49
2018-09-03T05:30:50.318Z,16.47
2018-09-03T05:31:50.306Z,16.45
2018-09-03T05:32:50.396Z,16.45
2018-09-03T05:33:50.316Z,16.33
2018-09-03T05:34:50.336Z,16.37
2018-09-03T05:35:50.317Z,16.37
2018-09-03T05:36:50.295Z,16.4
2018-09-03T05:37:50.322Z,16.39
2018-09-03T05:38:50.310Z,16.4
2018-09-03T05:39:50.317Z,16.37
2018-09-03T05:40:50.307Z,16.42
2018-09-03T05:41:50.323Z,16.46
2018-09-03T05:42:50.291Z,16.45
2018-09-03T05:43:50.430Z,16.45
2018-09-03T05:44:50.317Z,16.47
2018-09-03T05:45:50.322Z,16.46
2018-09-03T05:46:50.455Z,16.39
2018-09-03T05:47:50.525Z,16.36
2018-09-03T05:48:50.336Z,16.36
2018-09-03T05:49:50.597Z,16.35
2018-09-03T05:50:50.435Z,16.37
2018-09-03T05:51:50.477Z,16.42
2018-09-03T05:52:50.370Z,16.4
2018-09-03T05:53:51.146Z,16.43
2018-09-03T05:54:50.531Z,16.43
2018-09-03T05:55:50.379Z,16.46
2018-09-03T05:56:50.492Z,16.46
2018-09-03T05:57:50.336Z,16.49
2018-09-03T05:58:50.335Z,16.49
2018-09-03T05:59:50.451Z,16.47
2018-09-03T06:00:50.383Z,16.53
2018-09-03T06:01:50.469Z,16.52
2018-09-03T06:02:50.416Z,16.52
2018-09-03T06:03:50.315Z,16.54
2018-09-03T06:04:50.575Z,16.56
2018-09-03T06:05:50.487Z,16.56
2018-09-03T06:06:50.378Z,16.57
2018-09-03T06:07:50.422Z,16.54
2018-09-03T06:08:50.399Z,16.56
2018-09-03T06:09:50.415Z,16.56
2018-09-03T06:10:50.352Z,16.53
2018-09-03T06:11:50.492Z,16.54
2018-09-03T06:12:50.485Z,16.56
2018-09-03T06:13:50.359Z,16.59
2018-09-03T06:14:50.352Z,16.56
2018-09-03T06:15:50.660Z,16.53
2018-09-03T06:16:50.377Z,16.53
2018-09-03T06:17:50.829Z,16.54
2018-09-03T06:18:50.332Z,16.57
2018-09-03T06:19:50.327Z,16.6
2018-09-03T06:20:50.568Z,16.64
2018-09-03T06:21:50.529Z,16.64
2018-09-03T06:22:50.367Z,16.71
2018-09-03T06:23:50.517Z,16.71
2018-09-03T06:24:50.407Z,16.7
2018-09-03T06:25:50.414Z,16.71
2018-09-03T06:26:50.333Z,16.73
2018-09-03T06:27:50.379Z,16.74
2018-09-03T06:28:50.422Z,16.77
2018-09-03T06:29:50.385Z,16.78
2018-09-03T06:30:50.353Z,16.78
2018-09-03T06:31:50.408Z,16.8
2018-09-03T06:32:50.482Z,16.81
2018-09-03T06:33:51.014Z,16.83
2018-09-03T06:34:50.483Z,16.84
2018-09-03T06:35:50.658Z,16.86
2018-09-03T06:36:50.400Z,16.9
2018-09-03T06:37:50.412Z,16.88
2018-09-03T06:38:50.426Z,16.87
2018-09-03T06:39:50.429Z,16.84
2018-09-03T06:40:50.461Z,16.84
2018-09-03T06:41:50.471Z,16.78
2018-09-03T06:42:50.544Z,16.75
2018-09-03T06:43:50.394Z,16.75
2018-09-03T06:44:50.758Z,16.71
2018-09-03T06:45:50.477Z,16.71
2018-09-03T06:46:50.475Z,16.68
2018-09-03T06:47:50.361Z,16.74
2018-09-03T06:48:50.577Z,16.73
2018-09-03T06:49:50.336Z,16.74
2018-09-03T06:50:50.341Z,16.75
2018-09-03T06:51:50.760Z,16.8
2018-09-03T06:52:50.801Z,16.83
2018-09-03T06:53:50.373Z,16.87
2018-09-03T06:54:50.427Z,16.86
2018-09-03T06:55:50.347Z,16.87
2018-09-03T06:56:50.817Z,16.88
2018-09-03T06:57:50.360Z,16.88
2018-09-03T06:58:50.359Z,16.87
2018-09-03T06:59:50.406Z,16.88
2018-09-03T07:00:50.383Z,16.92
2018-09-03T07:01:50.495Z,16.94
2018-09-03T07:02:50.680Z,16.98
2018-09-03T07:03:50.364Z,16.99
2018-09-03T07:04:50.385Z,17.01
2018-09-03T07:05:50.507Z,17.01
2018-09-03T07:06:50.755Z,16.98
2018-09-03T07:07:50.725Z,16.92
2018-09-03T07:08:50.441Z,16.94
2018-09-03T07:09:50.431Z,16.97
2018-09-03T07:10:50.508Z,16.99
2018-09-03T07:11:50.450Z,17.01
2018-09-03T07:12:50.628Z,17.01
2018-09-03T07:13:50.367Z,17.04
2018-09-03T07:14:50.448Z,17.07
2018-09-03T07:15:50.713Z,17.07
2018-09-03T07:16:50.365Z,17.08
2018-09-03T07:17:50.452Z,17.05
2018-09-03T07:18:50.819Z,17.05
2018-09-03T07:19:50.437Z,17.09
2018-09-03T07:20:50.569Z,17.11
2018-09-03T07:21:50.431Z,17.11
2018-09-03T07:22:50.467Z,17.15
2018-09-03T07:23:50.856Z,17.16
2018-09-03T07:24:50.372Z,17.19
2018-09-03T07:25:50.559Z,17.22
2018-09-03T07:26:50.368Z,17.23
2018-09-03T07:27:50.434Z,17.23
2018-09-03T07:28:50.882Z,17.27
2018-09-03T07:29:50.683Z,17.32
2018-09-03T07:30:50.412Z,17.3
2018-09-03T07:31:50.389Z,17.3
2018-09-03T07:32:50.488Z,17.33
2018-09-03T07:33:50.377Z,17.3
2018-09-03T07:34:50.357Z,17.27
2018-09-03T07:35:50.391Z,17.29
2018-09-03T07:36:50.686Z,17.3
2018-09-03T07:37:50.419Z,17.32
2018-09-03T07:38:50.504Z,17.33
2018-09-03T07:39:50.367Z,17.36
2018-09-03T07:40:50.373Z,17.35
2018-09-03T07:41:50.429Z,17.35
2018-09-03T07:42:50.353Z,17.4
2018-09-03T07:43:50.498Z,17.42
2018-09-03T07:44:50.456Z,17.4
2018-09-03T07:45:50.393Z,17.29
2018-09-03T07:46:50.450Z,17.32
2018-09-03T07:47:50.423Z,17.35
2018-09-03T07:48:50.768Z,17.35
2018-09-03T07:49:50.400Z,17.35
2018-09-03T07:50:50.535Z,17.29
2018-09-03T07:51:50.422Z,17.3
2018-09-03T07:52:50.398Z,17.32
2018-09-03T07:53:50.468Z,17.33
2018-09-03T07:54:50.387Z,17.39
2018-09-03T07:55:50.778Z,17.4
2018-09-03T07:56:50.834Z,17.4
2018-09-03T07:57:50.662Z,17.42
2018-09-03T07:58:50.448Z,17.44
2018-09-03T07:59:50.445Z,17.46
2018-09-03T08:00:50.377Z,17.43
2018-09-03T08:01:50.660Z,17.44
2018-09-03T08:02:50.388Z,17.35
2018-09-03T08:03:50.423Z,17.37
2018-09-03T08:04:50.609Z,17.39
2018-09-03T08:05:50.516Z,17.35
2018-09-03T08:06:51.015Z,17.4
2018-09-03T08:07:50.456Z,17.43
2018-09-03T08:08:50.414Z,17.46
2018-09-03T08:09:50.425Z,17.46
2018-09-03T08:10:50.530Z,17.49
2018-09-03T08:11:50.638Z,17.49
2018-09-03T08:12:50.626Z,17.49
2018-09-03T08:13:50.390Z,17.44
2018-09-03T08:14:50.399Z,17.49
2018-09-03T08:15:50.461Z,17.52
2018-09-03T08:16:50.435Z,17.57
2018-09-03T08:17:50.389Z,17.58
2018-09-03T08:18:50.408Z,17.58
2018-09-03T08:19:50.534Z,17.66
2018-09-03T08:20:50.423Z,17.66
2018-09-03T08:21:50.503Z,17.69
2018-09-03T08:22:50.410Z,17.7
2018-09-03T08:23:50.445Z,17.73
2018-09-03T08:24:50.423Z,17.74
2018-09-03T08:25:50.418Z,17.77
2018-09-03T08:26:50.470Z,17.8
2018-09-03T08:27:50.445Z,17.78
2018-09-03T08:28:50.390Z,17.77
2018-09-03T08:29:50.383Z,17.76
2018-09-03T08:30:50.390Z,17.77
2018-09-03T08:31:50.499Z,17.78
2018-09-03T08:32:50.575Z,17.8
2018-09-03T08:33:50.480Z,17.82
2018-09-03T08:34:50.444Z,17.77
2018-09-03T08:35:50.525Z,17.81
2018-09-03T08:36:50.433Z,17.84
2018-09-03T08:37:50.572Z,17.85
2018-09-03T08:38:50.618Z,17.78
2018-09-03T08:39:50.559Z,17.76
2018-09-03T08:40:50.461Z,17.74
2018-09-03T08:41:50.452Z,17.76
2018-09-03T08:42:50.435Z,17.78
2018-09-03T08:43:50.510Z,17.77
2018-09-03T08:44:50.719Z,17.8
2018-09-03T08:45:50.412Z,17.87
2018-09-03T08:46:50.678Z,17.88
2018-09-03T08:47:50.407Z,17.91
2018-09-03T08:48:50.456Z,17.91
2018-09-03T08:49:50.438Z,17.87
2018-09-03T08:50:50.526Z,17.88
2018-09-03T08:51:50.541Z,17.91
2018-09-03T08:52:50.580Z,17.92
2018-09-03T08:53:50.670Z,17.95
2018-09-03T08:54:50.449Z,17.98
2018-09-03T08:55:51.595Z,18.05
2018-09-03T08:56:50.858Z,18.11
2018-09-03T08:57:50.444Z,18.15
2018-09-03T08:58:50.444Z,18.22
2018-09-03T08:59:50.778Z,18.26
2018-09-03T09:00:50.564Z,18.29
2018-09-03T09:01:50.507Z,18.33
2018-09-03T09:02:50.712Z,18.39
2018-09-03T09:03:50.472Z,18.4
2018-09-03T09:04:50.417Z,18.32
2018-09-03T09:05:50.871Z,18.37
2018-09-03T09:06:50.817Z,18.4
2018-09-03T09:07:50.412Z,18.4
2018-09-03T09:08:50.542Z,18.44
2018-09-03T09:09:50.530Z,18.46
2018-09-03T09:10:50.752Z,18.46
2018-09-03T09:11:50.579Z,18.47
2018-09-03T09:12:50.455Z,18.52
2018-09-03T09:13:50.452Z,18.54
2018-09-03T09:14:50.454Z,18.47
2018-09-03T09:15:50.519Z,18.39
2018-09-03T09:16:50.905Z,18.37
2018-09-03T09:17:50.468Z,18.39
2018-09-03T09:18:50.462Z,18.39
2018-09-03T09:19:50.473Z,18.42
2018-09-03T09:20:50.530Z,18.46
2018-09-03T09:21:50.668Z,18.49
2018-09-03T09:22:50.486Z,18.53
2018-09-03T09:23:50.459Z,18.59
2018-09-03T09:24:50.835Z,18.64
2018-09-03T09:25:50.728Z,18.68
2018-09-03T09:26:50.524Z,18.74
2018-09-03T09:27:50.698Z,18.74
2018-09-03T09:28:50.734Z,18.77
2018-09-03T09:29:50.465Z,18.75
2018-09-03T09:30:50.594Z,18.75
2018-09-03T09:31:50.621Z,18.68
2018-09-03T09:32:50.469Z,18.61
2018-09-03T09:33:50.455Z,18.56
2018-09-03T09:34:50.457Z,18.59
2018-09-03T09:35:50.645Z,18.6
2018-09-03T09:36:50.692Z,18.64
2018-09-03T09:37:50.653Z,18.66
2018-09-03T09:38:50.458Z,18.67
2018-09-03T09:39:50.482Z,18.66
2018-09-03T09:40:50.587Z,18.67
2018-09-03T09:41:50.456Z,18.63
2018-09-03T09:42:50.898Z,18.64
2018-09-03T09:43:50.506Z,18.6
2018-09-03T09:44:50.619Z,18.56
2018-09-03T09:45:50.511Z,18.61
2018-09-03T09:46:50.518Z,18.6
2018-09-03T09:47:50.507Z,18.61
2018-09-03T09:48:50.429Z,18.66
2018-09-03T09:49:50.490Z,18.67
2018-09-03T09:50:50.451Z,18.64
2018-09-03T09:51:50.463Z,18.64
2018-09-03T09:52:50.479Z,18.66
2018-09-03T09:53:50.737Z,18.7
2018-09-03T09:54:50.639Z,18.67
2018-09-03T09:55:50.656Z,18.68
2018-09-03T09:56:50.742Z,18.72
2018-09-03T09:57:50.644Z,18.75
2018-09-03T09:58:50.460Z,18.82
2018-09-03T09:59:50.598Z,18.81
2018-09-03T10:00:50.525Z,18.85
2018-09-03T10:01:50.484Z,18.87
2018-09-03T10:02:50.505Z,18.92
2018-09-03T10:03:50.646Z,19.01
2018-09-03T10:04:50.480Z,19.06
2018-09-03T10:05:50.570Z,19.09
2018-09-03T10:06:50.650Z,19.16
2018-09-03T10:07:50.505Z,19.26
2018-09-03T10:08:50.444Z,19.4
2018-09-03T10:09:50.509Z,19.42
2018-09-03T10:10:50.545Z,19.43
2018-09-03T10:11:50.517Z,19.46
2018-09-03T10:12:50.508Z,19.4
2018-09-03T10:13:50.510Z,19.42
2018-09-03T10:14:50.598Z,19.46
2018-09-03T10:15:50.573Z,19.47
2018-09-03T10:16:50.464Z,19.51
2018-09-03T10:17:50.834Z,19.56
2018-09-03T10:18:50.634Z,19.56
2018-09-03T10:19:50.640Z,19.6
2018-09-03T10:20:50.680Z,19.6
2018-09-03T10:21:50.704Z,19.61
2018-09-03T10:22:50.505Z,19.67
2018-09-03T10:23:50.480Z,19.71
2018-09-03T10:24:50.631Z,19.72
2018-09-03T10:25:50.470Z,19.74
2018-09-03T10:26:50.705Z,19.72
2018-09-03T10:27:50.649Z,19.77
2018-09-03T10:28:50.470Z,19.84
2018-09-03T10:29:50.663Z,19.86
2018-09-03T10:30:50.531Z,19.88
2018-09-03T10:31:50.815Z,19.88
2018-09-03T10:32:50.522Z,19.85
2018-09-03T10:33:50.594Z,19.86
2018-09-03T10:34:50.550Z,19.89
2018-09-03T10:35:50.510Z,19.88
2018-09-03T10:36:50.722Z,19.88
2018-09-03T10:37:50.483Z,19.91
2018-09-03T10:38:50.600Z,19.92
2018-09-03T10:39:50.621Z,19.95
2018-09-03T10:40:50.501Z,19.96
2018-09-03T10:41:50.484Z,19.99
2018-09-03T10:42:50.538Z,20.05
2018-09-03T10:43:50.565Z,20.09
2018-09-03T10:44:50.623Z,20.08
2018-09-03T10:45:50.565Z,20.04
2018-09-03T10:46:50.764Z,20.04
2018-09-03T10:47:50.559Z,19.98
2018-09-03T10:48:50.505Z,20.08
2018-09-03T10:49:51.217Z,20.2
2018-09-03T10:50:50.502Z,20.3
2018-09-03T10:51:50.478Z,20.36
2018-09-03T10:52:50.728Z,20.3
2018-09-03T10:53:50.504Z,20.33
2018-09-03T10:54:50.617Z,20.34
2018-09-03T10:55:51.088Z,20.44
2018-09-03T10:56:50.497Z,20.47
2018-09-03T10:57:50.488Z,20.48
2018-09-03T10:58:50.694Z,20.47
2018-09-03T10:59:50.503Z,20.5
2018-09-03T11:00:50.484Z,20.51
2018-09-03T11:01:50.532Z,20.52
2018-09-03T11:02:50.551Z,20.57
2018-09-03T11:03:50.500Z,20.61
2018-09-03T11:04:50.515Z,20.62
2018-09-03T11:05:50.653Z,20.58
2018-09-03T11:06:50.606Z,20.51
2018-09-03T11:07:50.544Z,20.55
2018-09-03T11:08:50.506Z,20.61
2018-09-03T11:09:50.573Z,20.65
2018-09-03T11:10:50.520Z,20.58
2018-09-03T11:11:50.487Z,20.52
2018-09-03T11:12:50.640Z,20.6
2018-09-03T11:13:50.912Z,20.64
2018-09-03T11:14:50.500Z,20.68
2018-09-03T11:15:50.623Z,20.67
2018-09-03T11:16:50.570Z,20.64
2018-09-03T11:17:50.864Z,20.65
2018-09-03T11:18:50.700Z,20.65
2018-09-03T11:19:50.776Z,20.67
2018-09-03T11:20:50.743Z,20.68
2018-09-03T11:21:50.567Z,20.71
2018-09-03T11:22:50.651Z,20.77
2018-09-03T11:23:51.872Z,20.68
2018-09-03T11:24:50.649Z,20.65
2018-09-03T11:25:50.677Z,20.67
2018-09-03T11:26:50.675Z,20.67
2018-09-03T11:27:50.872Z,20.62
2018-09-03T11:28:50.915Z,20.7
2018-09-03T11:29:50.531Z,20.68
2018-09-03T11:30:50.748Z,20.68
2018-09-03T11:31:50.574Z,20.65
2018-09-03T11:32:50.576Z,20.71
2018-09-03T11:33:50.636Z,20.72
2018-09-03T11:34:50.649Z,20.71
2018-09-03T11:35:50.635Z,20.74
2018-09-03T11:36:50.529Z,20.77
2018-09-03T11:37:50.574Z,20.78
2018-09-03T11:38:50.568Z,20.75
2018-09-03T11:39:50.606Z,20.78
2018-09-03T11:40:50.957Z,20.84
2018-09-03T11:41:50.549Z,20.91
2018-09-03T11:42:50.652Z,20.92
2018-09-03T11:43:51.077Z,20.95
2018-09-03T11:44:50.888Z,21.01
2018-09-03T11:45:50.565Z,20.92
2018-09-03T11:46:50.595Z,20.75
2018-09-03T11:47:50.685Z,20.82
2018-09-03T11:48:50.540Z,20.87
2018-09-03T11:49:50.655Z,20.95
2018-09-03T11:50:50.525Z,20.96
2018-09-03T11:51:50.780Z,21.03
2018-09-03T11:52:50.530Z,21.1
2018-09-03T11:53:50.567Z,21.1
2018-09-03T11:54:51.000Z,21.12
2018-09-03T11:55:50.838Z,21.19
2018-09-03T11:56:50.563Z,21.22
2018-09-03T11:57:51.133Z,21.22
2018-09-03T11:58:50.570Z,21.1
2018-09-03T11:59:50.891Z,21.09
2018-09-03T12:00:50.551Z,21.12
2018-09-03T12:01:50.582Z,21.17
2018-09-03T12:02:50.698Z,21.19
2018-09-03T12:03:50.584Z,21.17
2018-09-03T12:04:50.564Z,21.19
2018-09-03T12:05:50.657Z,21.19
2018-09-03T12:06:50.721Z,21.17
2018-09-03T12:07:50.567Z,21.19
2018-09-03T12:08:50.564Z,21.17
2018-09-03T12:09:50.605Z,21.2
2018-09-03T12:10:50.586Z,21.2
2018-09-03T12:11:51.816Z,21.15
2018-09-03T12:12:50.706Z,21.16
2018-09-03T12:13:50.610Z,21.2
2018-09-03T12:14:50.562Z,21.19
2018-09-03T12:15:50.577Z,21.19
2018-09-03T12:16:50.544Z,21.22
2018-09-03T12:17:50.615Z,21.27
2018-09-03T12:18:50.573Z,21.33
2018-09-03T12:19:50.563Z,21.32
2018-09-03T12:20:50.714Z,21.34
2018-09-03T12:21:50.586Z,21.37
2018-09-03T12:22:50.568Z,21.39
2018-09-03T12:23:50.605Z,21.41
2018-09-03T12:24:50.692Z,21.39
2018-09-03T12:25:50.570Z,21.34
2018-09-03T12:26:50.557Z,21.34
2018-09-03T12:27:50.569Z,21.37
2018-09-03T12:28:50.562Z,21.37
2018-09-03T12:29:50.554Z,21.4
2018-09-03T12:30:50.720Z,21.41
2018-09-03T12:31:50.642Z,21.34
2018-09-03T12:32:50.610Z,21.36
2018-09-03T12:33:50.588Z,21.36
2018-09-03T12:34:50.566Z,21.39
2018-09-03T12:35:50.625Z,21.43
2018-09-03T12:36:50.658Z,21.46
2018-09-03T12:37:50.546Z,21.4
2018-09-03T12:38:50.657Z,21.41
2018-09-03T12:39:50.565Z,21.46
2018-09-03T12:40:50.654Z,21.47
2018-09-03T12:41:50.722Z,21.44
2018-09-03T12:42:50.709Z,21.47
2018-09-03T12:43:50.591Z,21.49
2018-09-03T12:44:50.578Z,21.5
2018-09-03T12:45:51.345Z,21.43
2018-09-03T12:46:50.643Z,21.41
2018-09-03T12:47:50.579Z,21.44
2018-09-03T12:48:50.606Z,21.5
2018-09-03T12:49:50.826Z,21.49
2018-09-03T12:50:50.680Z,21.51
2018-09-03T12:51:50.660Z,21.54
2018-09-03T12:52:50.596Z,21.56
2018-09-03T12:53:50.604Z,21.56
2018-09-03T12:54:50.678Z,21.54
2018-09-03T12:55:50.684Z,21.57
2018-09-03T12:56:50.877Z,21.58